createdAt,value
2023-02-09T00:00:11.071Z,101407.24
2023-02-09T00:01:11.080Z,101404.45
2023-02-09T00:02:11.178Z,101401.32
2023-02-09T00:03:11.107Z,101402.46
2023-02-09T00:04:11.085Z,101405.22
2023-02-09T00:05:11.074Z,101406.39
2023-02-09T00:06:13.072Z,101412.84
2023-02-09T00:07:11.089Z,101412.97
2023-02-09T00:08:11.078Z,101409.56
2023-02-09T00:09:11.073Z,101408.87
2023-02-09T00:10:11.078Z,101410.00
2023-02-09T00:11:19.071Z,101414.27
2023-02-09T00:12:15.071Z,101413.89
2023-02-09T00:13:15.070Z,101414.10
2023-02-09T00:14:11.098Z,101411.82
2023-02-09T00:15:11.071Z,101412.68
2023-02-09T00:16:11.112Z,101410.97
2023-02-09T00:17:11.079Z,101412.88
2023-02-09T00:18:11.072Z,101412.27
2023-02-09T00:19:11.082Z,101410.94
2023-02-09T00:20:11.082Z,101409.71
2023-02-09T00:21:11.077Z,101411.75
2023-02-09T00:22:11.068Z,101409.15
2023-02-09T00:23:11.081Z,101410.32
2023-02-09T00:24:11.077Z,101408.70
2023-02-09T00:25:11.074Z,101409.43
2023-02-09T00:26:11.074Z,101408.95
2023-02-09T00:27:11.073Z,101407.07
2023-02-09T00:28:11.145Z,101406.43
2023-02-09T00:29:11.073Z,101406.23
2023-02-09T00:30:11.074Z,101403.42
2023-02-09T00:31:11.130Z,101407.44
2023-02-09T00:32:11.093Z,101408.70
2023-02-09T00:33:11.073Z,101414.79
2023-02-09T00:34:11.071Z,101412.52
2023-02-09T00:35:11.079Z,101412.76
2023-02-09T00:36:12.081Z,101412.60
2023-02-09T00:37:11.078Z,101413.89
2023-02-09T00:38:11.070Z,101411.87
2023-02-09T00:39:11.080Z,101408.66
2023-02-09T00:40:11.071Z,101410.45
2023-02-09T00:41:11.075Z,101413.04
2023-02-09T00:42:11.120Z,101409.36
2023-02-09T00:43:11.070Z,101409.31
2023-02-09T00:44:11.097Z,101410.65
2023-02-09T00:45:11.079Z,101414.46
2023-02-09T00:46:11.158Z,101415.36
2023-02-09T00:47:11.074Z,101420.35
2023-02-09T00:48:11.082Z,101416.41
2023-02-09T00:49:11.069Z,101420.59
2023-02-09T00:50:11.075Z,101425.21
2023-02-09T00:51:11.083Z,101424.28
2023-02-09T00:52:11.071Z,101422.90
2023-02-09T00:53:11.070Z,101418.76
2023-02-09T00:54:11.083Z,101418.72
2023-02-09T00:55:11.091Z,101420.38
2023-02-09T00:56:11.071Z,101419.00
2023-02-09T00:57:11.079Z,101417.82
2023-02-09T00:58:11.073Z,101417.86
2023-02-09T00:59:11.073Z,101416.40
2023-02-09T01:00:14.071Z,101405.56
2023-02-09T01:01:12.082Z,101405.55
2023-02-09T01:02:11.068Z,101410.83
2023-02-09T01:03:11.108Z,101412.09
2023-02-09T01:04:11.076Z,101410.87
2023-02-09T01:05:11.064Z,101413.13
2023-02-09T01:06:11.071Z,101413.98
2023-02-09T01:07:11.062Z,101411.02
2023-02-09T01:08:11.067Z,101414.82
2023-02-09T01:09:11.070Z,101411.41
2023-02-09T01:10:11.067Z,101415.02
2023-02-09T01:11:15.062Z,101412.75
2023-02-09T01:12:11.068Z,101412.42
2023-02-09T01:13:11.059Z,101407.06
2023-02-09T01:14:11.063Z,101408.48
2023-02-09T01:15:11.068Z,101410.07
2023-02-09T01:16:17.098Z,101406.54
2023-02-09T01:17:11.060Z,101406.74
2023-02-09T01:18:11.063Z,101404.22
2023-02-09T01:19:13.060Z,101399.56
2023-02-09T01:20:11.059Z,101398.91
2023-02-09T01:21:14.062Z,101398.71
2023-02-09T01:22:11.061Z,101399.02
2023-02-09T01:23:11.059Z,101397.61
2023-02-09T01:24:13.064Z,101395.22
2023-02-09T01:25:11.068Z,101398.35
2023-02-09T01:26:11.060Z,101400.46
2023-02-09T01:27:11.063Z,101393.72
2023-02-09T01:28:11.104Z,101396.23
2023-02-09T01:29:12.060Z,101397.05
2023-02-09T01:30:11.080Z,101392.50
2023-02-09T01:31:19.264Z,101393.20
2023-02-09T01:32:11.174Z,101391.45
2023-02-09T01:33:11.057Z,101387.15
2023-02-09T01:34:11.062Z,101378.87
2023-02-09T01:35:11.066Z,101372.95
2023-02-09T01:36:11.062Z,101370.96
2023-02-09T01:37:11.074Z,101374.75
2023-02-09T01:38:11.059Z,101376.21
2023-02-09T01:39:11.059Z,101374.01
2023-02-09T01:40:11.068Z,101370.32
2023-02-09T01:41:11.064Z,101368.77
2023-02-09T01:42:17.063Z,101361.19
2023-02-09T01:43:12.074Z,101353.97
2023-02-09T01:44:22.062Z,101354.22
2023-02-09T01:45:20.072Z,101357.58
2023-02-09T01:46:11.110Z,101352.18
2023-02-09T01:47:18.072Z,101346.50
2023-02-09T01:48:11.064Z,101347.39
2023-02-09T01:49:16.065Z,101346.82
2023-02-09T01:50:11.113Z,101341.25
2023-02-09T01:51:11.073Z,101338.12
2023-02-09T01:52:16.064Z,101339.18
2023-02-09T01:53:11.060Z,101340.76
2023-02-09T01:54:15.085Z,101338.39
2023-02-09T01:55:14.075Z,101338.48
2023-02-09T01:56:12.062Z,101339.28
2023-02-09T01:57:13.090Z,101342.04
2023-02-09T01:58:15.074Z,101339.76
2023-02-09T01:59:11.065Z,101341.54
2023-02-09T02:00:13.077Z,101341.89
2023-02-09T02:01:11.146Z,101344.08
2023-02-09T02:02:11.126Z,101343.59
2023-02-09T02:03:13.073Z,101344.35
2023-02-09T02:04:11.073Z,101347.47
2023-02-09T02:05:11.065Z,101351.78
2023-02-09T02:06:15.065Z,101350.30
2023-02-09T02:07:18.069Z,101348.30
2023-02-09T02:08:22.073Z,101347.49
2023-02-09T02:09:14.066Z,101346.14
2023-02-09T02:10:11.070Z,101344.09
2023-02-09T02:11:11.073Z,101343.43
2023-02-09T02:12:11.064Z,101339.62
2023-02-09T02:13:11.068Z,101341.60
2023-02-09T02:14:19.066Z,101341.15
2023-02-09T02:15:11.066Z,101337.57
2023-02-09T02:16:22.070Z,101340.21
2023-02-09T02:17:19.067Z,101343.31
2023-02-09T02:18:19.078Z,101342.79
2023-02-09T02:19:22.063Z,101337.62
2023-02-09T02:20:19.062Z,101339.94
2023-02-09T02:21:19.058Z,101341.36
2023-02-09T02:22:19.062Z,101338.34
2023-02-09T02:23:19.076Z,101338.80
2023-02-09T02:24:19.064Z,101335.38
2023-02-09T02:25:22.061Z,101343.16
2023-02-09T02:26:19.065Z,101342.15
2023-02-09T02:27:25.062Z,101346.54
2023-02-09T02:28:19.165Z,101347.14
2023-02-09T02:29:19.077Z,101349.21
2023-02-09T02:30:22.113Z,101350.59
2023-02-09T02:31:19.214Z,101353.71
2023-02-09T02:32:18.057Z,101354.76
2023-02-09T02:33:22.060Z,101353.66
2023-02-09T02:34:25.075Z,101352.48
2023-02-09T02:35:25.068Z,101352.36
2023-02-09T02:36:22.073Z,101355.73
2023-02-09T02:37:19.066Z,101358.90
2023-02-09T02:38:19.062Z,101360.31
2023-02-09T02:39:19.059Z,101355.26
2023-02-09T02:40:22.068Z,101357.65
2023-02-09T02:41:22.073Z,101353.75
2023-02-09T02:42:23.068Z,101351.59
2023-02-09T02:43:22.062Z,101350.66
2023-02-09T02:44:17.064Z,101355.52
2023-02-09T02:45:19.067Z,101352.14
2023-02-09T02:46:19.096Z,101354.39
2023-02-09T02:47:13.068Z,101354.91
2023-02-09T02:48:19.065Z,101355.44
2023-02-09T02:49:17.063Z,101359.21
2023-02-09T02:50:18.069Z,101358.04
2023-02-09T02:51:19.070Z,101353.14
2023-02-09T02:52:11.094Z,101357.03
2023-02-09T02:53:12.068Z,101358.20
2023-02-09T02:54:17.066Z,101360.60
2023-02-09T02:55:13.076Z,101360.00
2023-02-09T02:56:16.069Z,101357.33
2023-02-09T02:57:18.074Z,101356.25
2023-02-09T02:58:11.071Z,101357.21
2023-02-09T02:59:13.083Z,101353.96
2023-02-09T03:00:18.068Z,101358.41
2023-02-09T03:01:13.090Z,101354.87
2023-02-09T03:02:22.089Z,101354.50
2023-02-09T03:03:13.079Z,101351.17
2023-02-09T03:04:11.080Z,101348.11
2023-02-09T03:05:11.112Z,101344.54
2023-02-09T03:06:11.075Z,101341.16
2023-02-09T03:07:11.074Z,101342.40
2023-02-09T03:08:11.069Z,101347.15
2023-02-09T03:09:11.087Z,101348.55
2023-02-09T03:10:19.073Z,101346.11
2023-02-09T03:11:12.094Z,101350.85
2023-02-09T03:12:19.074Z,101356.11
2023-02-09T03:13:18.073Z,101361.22
2023-02-09T03:14:19.071Z,101363.48
2023-02-09T03:15:19.073Z,101364.32
2023-02-09T03:16:19.152Z,101367.36
2023-02-09T03:17:22.079Z,101363.08
2023-02-09T03:18:19.087Z,101364.29
2023-02-09T03:19:22.073Z,101366.64
2023-02-09T03:20:17.092Z,101366.16
2023-02-09T03:21:20.070Z,101366.66
2023-02-09T03:22:19.072Z,101368.52
2023-02-09T03:23:19.080Z,101366.70
2023-02-09T03:24:22.074Z,101364.39
2023-02-09T03:25:17.097Z,101365.64
2023-02-09T03:26:17.076Z,101367.93
2023-02-09T03:27:19.076Z,101368.95
2023-02-09T03:28:16.105Z,101369.45
2023-02-09T03:29:11.088Z,101371.42
2023-02-09T03:30:12.078Z,101371.40
2023-02-09T03:31:11.203Z,101373.07
2023-02-09T03:32:11.078Z,101374.69
2023-02-09T03:33:22.070Z,101374.97
2023-02-09T03:34:11.072Z,101372.44
2023-02-09T03:35:11.077Z,101374.67
2023-02-09T03:36:15.074Z,101375.27
2023-02-09T03:37:11.071Z,101374.10
2023-02-09T03:38:11.072Z,101373.04
2023-02-09T03:39:11.083Z,101371.68
2023-02-09T03:40:11.077Z,101367.80
2023-02-09T03:41:11.074Z,101365.76
2023-02-09T03:42:11.085Z,101366.59
2023-02-09T03:43:11.074Z,101364.71
2023-02-09T03:44:15.069Z,101367.64
2023-02-09T03:45:13.081Z,101372.22
2023-02-09T03:46:11.124Z,101371.90
2023-02-09T03:47:11.077Z,101375.42
2023-02-09T03:48:11.074Z,101373.37
2023-02-09T03:49:11.083Z,101373.04
2023-02-09T03:50:11.071Z,101370.69
2023-02-09T03:51:11.074Z,101368.04
2023-02-09T03:52:13.083Z,101371.16
2023-02-09T03:53:11.071Z,101371.25
2023-02-09T03:54:11.075Z,101377.50
2023-02-09T03:55:11.080Z,101376.86
2023-02-09T03:56:11.071Z,101382.65
2023-02-09T03:57:11.068Z,101379.97
2023-02-09T03:58:11.074Z,101380.74
2023-02-09T03:59:11.073Z,101378.90
2023-02-09T04:00:11.066Z,101380.24
2023-02-09T04:01:11.164Z,101377.96
2023-02-09T04:02:11.165Z,101378.95
2023-02-09T04:03:11.059Z,101380.07
2023-02-09T04:04:11.059Z,101381.14
2023-02-09T04:05:11.059Z,101375.53
2023-02-09T04:06:11.059Z,101380.15
2023-02-09T04:07:11.060Z,101379.00
2023-02-09T04:08:11.060Z,101378.82
2023-02-09T04:09:11.057Z,101380.67
2023-02-09T04:10:11.073Z,101381.62
2023-02-09T04:11:11.059Z,101382.16
2023-02-09T04:12:11.056Z,101381.95
2023-02-09T04:13:11.061Z,101381.21
2023-02-09T04:14:11.076Z,101387.28
2023-02-09T04:15:11.059Z,101386.54
2023-02-09T04:16:11.138Z,101389.92
2023-02-09T04:17:11.080Z,101392.68
2023-02-09T04:18:11.068Z,101392.09
2023-02-09T04:19:11.058Z,101391.01
2023-02-09T04:20:11.073Z,101394.40
2023-02-09T04:21:11.059Z,101398.49
2023-02-09T04:22:12.058Z,101403.32
2023-02-09T04:23:11.072Z,101406.90
2023-02-09T04:24:11.071Z,101409.01
2023-02-09T04:25:11.062Z,101410.07
2023-02-09T04:26:11.067Z,101410.52
2023-02-09T04:27:11.064Z,101411.88
2023-02-09T04:28:11.085Z,101417.22
2023-02-09T04:29:11.069Z,101421.44
2023-02-09T04:30:11.065Z,101421.27
2023-02-09T04:31:11.149Z,101425.99
2023-02-09T04:32:11.169Z,101433.75
2023-02-09T04:33:11.068Z,101435.67
2023-02-09T04:34:11.059Z,101440.43
2023-02-09T04:35:11.066Z,101443.59
2023-02-09T04:36:11.069Z,101440.01
2023-02-09T04:37:11.067Z,101442.45
2023-02-09T04:38:11.066Z,101445.48
2023-02-09T04:39:11.063Z,101445.93
2023-02-09T04:40:11.064Z,101454.47
2023-02-09T04:41:11.065Z,101460.33
2023-02-09T04:42:11.065Z,101461.57
2023-02-09T04:43:11.064Z,101463.13
2023-02-09T04:44:11.066Z,101464.27
2023-02-09T04:45:11.074Z,101465.03
2023-02-09T04:46:15.173Z,101467.92
2023-02-09T04:47:11.073Z,101475.95
2023-02-09T04:48:13.073Z,101487.22
2023-02-09T04:49:11.069Z,101490.51
2023-02-09T04:50:11.064Z,101493.46
2023-02-09T04:51:11.066Z,101491.59
2023-02-09T04:52:11.066Z,101492.78
2023-02-09T04:53:11.066Z,101499.05
2023-02-09T04:54:11.070Z,101506.20
2023-02-09T04:55:11.080Z,101512.05
2023-02-09T04:56:14.992Z,101512.55
2023-02-09T04:57:15.065Z,101514.29
2023-02-09T04:58:17.181Z,101514.82
2023-02-09T04:59:15.077Z,101519.01
2023-02-09T05:00:11.068Z,101518.18
2023-02-09T05:01:11.099Z,101519.22
2023-02-09T05:02:11.070Z,101520.61
2023-02-09T05:03:11.112Z,101526.30
2023-02-09T05:04:11.068Z,101525.54
2023-02-09T05:05:14.070Z,101525.25
2023-02-09T05:06:11.071Z,101525.20
2023-02-09T05:07:11.072Z,101526.03
2023-02-09T05:08:11.075Z,101525.73
2023-02-09T05:09:11.069Z,101528.28
2023-02-09T05:10:11.073Z,101525.86
2023-02-09T05:11:11.076Z,101528.24
2023-02-09T05:12:13.069Z,101532.80
2023-02-09T05:13:11.064Z,101531.64
2023-02-09T05:14:11.076Z,101540.25
2023-02-09T05:15:11.077Z,101541.39
2023-02-09T05:16:13.132Z,101547.71
2023-02-09T05:17:11.074Z,101555.18
2023-02-09T05:18:11.070Z,101558.43
2023-02-09T05:19:11.070Z,101562.11
2023-02-09T05:20:11.077Z,101568.08
2023-02-09T05:21:11.085Z,101568.16
2023-02-09T05:22:11.073Z,101568.14
2023-02-09T05:23:11.079Z,101563.94
2023-02-09T05:24:11.079Z,101564.33
2023-02-09T05:25:11.072Z,101560.46
2023-02-09T05:26:11.071Z,101560.72
2023-02-09T05:27:11.073Z,101556.86
2023-02-09T05:28:11.107Z,101556.61
2023-02-09T05:29:11.076Z,101558.31
2023-02-09T05:30:11.084Z,101558.33
2023-02-09T05:31:11.133Z,101556.89
2023-02-09T05:32:11.177Z,101557.63
2023-02-09T05:33:11.083Z,101556.14
2023-02-09T05:34:11.081Z,101558.71
2023-02-09T05:35:11.076Z,101560.52
2023-02-09T05:36:13.119Z,101558.83
2023-02-09T05:37:11.074Z,101560.20
2023-02-09T05:38:11.078Z,101561.03
2023-02-09T05:39:11.085Z,101563.11
2023-02-09T05:40:11.071Z,101566.73
2023-02-09T05:41:12.079Z,101570.36
2023-02-09T05:42:15.078Z,101571.52
2023-02-09T05:43:11.075Z,101571.33
2023-02-09T05:44:11.068Z,101575.68
2023-02-09T05:45:11.072Z,101584.44
2023-02-09T05:46:11.191Z,101590.21
2023-02-09T05:47:11.079Z,101593.77
2023-02-09T05:48:11.073Z,101599.95
2023-02-09T05:49:11.074Z,101602.91
2023-02-09T05:50:11.071Z,101606.61
2023-02-09T05:51:11.081Z,101609.40
2023-02-09T05:52:11.080Z,101614.93
2023-02-09T05:53:11.071Z,101615.50
2023-02-09T05:54:11.075Z,101616.64
2023-02-09T05:55:11.072Z,101620.34
2023-02-09T05:56:11.067Z,101618.54
2023-02-09T05:57:11.080Z,101620.84
2023-02-09T05:58:11.071Z,101621.92
2023-02-09T05:59:11.072Z,101619.55
2023-02-09T06:00:11.081Z,101619.35
2023-02-09T06:01:11.071Z,101620.67
2023-02-09T06:02:11.152Z,101624.62
2023-02-09T06:03:11.087Z,101619.09
2023-02-09T06:04:11.075Z,101619.46
2023-02-09T06:05:11.066Z,101618.98
2023-02-09T06:06:11.070Z,101618.57
2023-02-09T06:07:12.039Z,101617.90
2023-02-09T06:08:11.076Z,101619.37
2023-02-09T06:09:11.070Z,101621.94
2023-02-09T06:10:11.076Z,101620.35
2023-02-09T06:11:11.065Z,101617.79
2023-02-09T06:12:11.071Z,101619.35
2023-02-09T06:13:11.111Z,101622.56
2023-02-09T06:14:11.066Z,101620.09
2023-02-09T06:15:11.070Z,101619.08
2023-02-09T06:16:11.112Z,101619.49
2023-02-09T06:17:11.083Z,101621.02
2023-02-09T06:18:11.067Z,101623.22
2023-02-09T06:19:15.070Z,101625.18
2023-02-09T06:20:11.070Z,101627.62
2023-02-09T06:21:11.076Z,101634.09
2023-02-09T06:22:11.074Z,101632.58
2023-02-09T06:23:11.076Z,101634.96
2023-02-09T06:24:11.115Z,101635.31
2023-02-09T06:25:11.109Z,101643.57
2023-02-09T06:26:11.081Z,101644.16
2023-02-09T06:27:11.067Z,101649.84
2023-02-09T06:28:11.117Z,101649.90
2023-02-09T06:29:11.085Z,101649.94
2023-02-09T06:30:11.087Z,101645.60
2023-02-09T06:31:11.165Z,101650.88
2023-02-09T06:32:11.247Z,101646.25
2023-02-09T06:33:11.084Z,101644.66
2023-02-09T06:34:11.076Z,101646.54
2023-02-09T06:35:11.084Z,101648.38
2023-02-09T06:36:11.085Z,101648.09
2023-02-09T06:37:11.084Z,101650.70
2023-02-09T06:38:11.125Z,101651.79
2023-02-09T06:39:11.077Z,101648.92
2023-02-09T06:40:11.076Z,101648.32
2023-02-09T06:41:11.102Z,101649.98
2023-02-09T06:42:11.081Z,101652.39
2023-02-09T06:43:11.080Z,101649.82
2023-02-09T06:44:11.081Z,101652.06
2023-02-09T06:45:11.076Z,101648.39
2023-02-09T06:46:11.119Z,101648.59
2023-02-09T06:47:11.084Z,101644.78
2023-02-09T06:48:11.081Z,101646.96
2023-02-09T06:49:11.091Z,101645.28
2023-02-09T06:50:11.084Z,101645.02
2023-02-09T06:51:11.095Z,101649.33
2023-02-09T06:52:11.073Z,101645.11
2023-02-09T06:53:11.077Z,101652.39
2023-02-09T06:54:11.084Z,101656.07
2023-02-09T06:55:11.074Z,101660.79
2023-02-09T06:56:11.083Z,101666.05
2023-02-09T06:57:11.082Z,101668.99
2023-02-09T06:58:11.076Z,101675.99
2023-02-09T06:59:11.079Z,101671.76
2023-02-09T07:00:11.135Z,101677.50
2023-02-09T07:01:11.112Z,101682.02
2023-02-09T07:02:11.064Z,101680.14
2023-02-09T07:03:11.072Z,101684.05
2023-02-09T07:04:11.061Z,101686.50
2023-02-09T07:05:11.065Z,101684.88
2023-02-09T07:06:14.072Z,101688.13
2023-02-09T07:07:11.066Z,101686.01
2023-02-09T07:08:11.064Z,101688.01
2023-02-09T07:09:11.073Z,101688.02
2023-02-09T07:10:11.069Z,101689.16
2023-02-09T07:11:11.061Z,101691.75
2023-02-09T07:12:11.065Z,101693.54
2023-02-09T07:13:11.064Z,101696.66
2023-02-09T07:14:11.066Z,101695.85
2023-02-09T07:15:11.066Z,101696.83
2023-02-09T07:16:11.230Z,101697.16
2023-02-09T07:17:11.064Z,101701.96
2023-02-09T07:18:11.067Z,101706.55
2023-02-09T07:19:11.067Z,101707.89
2023-02-09T07:20:11.066Z,101712.48
2023-02-09T07:21:11.073Z,101712.32
2023-02-09T07:22:11.072Z,101716.50
2023-02-09T07:23:11.061Z,101720.20
2023-02-09T07:24:11.063Z,101724.76
2023-02-09T07:25:11.075Z,101727.19
2023-02-09T07:26:13.071Z,101729.91
2023-02-09T07:27:11.067Z,101728.16
2023-02-09T07:28:11.095Z,101731.30
2023-02-09T07:29:12.918Z,101731.35
2023-02-09T07:30:11.067Z,101730.36
2023-02-09T07:31:11.262Z,101734.32
2023-02-09T07:32:11.094Z,101735.22
2023-02-09T07:33:11.068Z,101736.44
2023-02-09T07:34:11.072Z,101740.84
2023-02-09T07:35:11.067Z,101739.90
2023-02-09T07:36:11.070Z,101738.27
2023-02-09T07:37:11.085Z,101738.07
2023-02-09T07:38:11.071Z,101736.61
2023-02-09T07:39:11.065Z,101736.00
2023-02-09T07:40:11.075Z,101741.66
2023-02-09T07:41:17.090Z,101738.37
2023-02-09T07:42:11.065Z,101737.32
2023-02-09T07:43:11.066Z,101741.55
2023-02-09T07:44:11.066Z,101742.04
2023-02-09T07:45:11.060Z,101744.98
2023-02-09T07:46:11.125Z,101743.40
2023-02-09T07:47:11.063Z,101749.18
2023-02-09T07:48:12.060Z,101748.50
2023-02-09T07:49:11.061Z,101752.60
2023-02-09T07:50:11.069Z,101755.12
2023-02-09T07:51:14.066Z,101755.09
2023-02-09T07:52:11.058Z,101761.31
2023-02-09T07:53:11.093Z,101763.95
2023-02-09T07:54:13.061Z,101768.39
2023-02-09T07:55:11.060Z,101764.89
2023-02-09T07:56:11.064Z,101767.90
2023-02-09T07:57:11.062Z,101770.22
2023-02-09T07:58:11.060Z,101770.75
2023-02-09T07:59:11.060Z,101768.79
2023-02-09T08:00:11.078Z,101772.25
2023-02-09T08:01:11.065Z,101773.87
2023-02-09T08:02:18.073Z,101768.95
2023-02-09T08:03:11.166Z,101769.32
2023-02-09T08:04:11.058Z,101768.71
2023-02-09T08:05:16.129Z,101767.16
2023-02-09T08:06:20.136Z,101765.33
2023-02-09T08:07:11.066Z,101762.88
2023-02-09T08:08:11.061Z,101762.97
2023-02-09T08:09:11.075Z,101764.51
2023-02-09T08:10:11.074Z,101763.74
2023-02-09T08:11:11.060Z,101763.57
2023-02-09T08:12:11.124Z,101764.10
2023-02-09T08:13:11.063Z,101768.41
2023-02-09T08:14:17.060Z,101769.59
2023-02-09T08:15:11.076Z,101768.97
2023-02-09T08:16:12.145Z,101768.37
2023-02-09T08:17:16.058Z,101767.51
2023-02-09T08:18:17.069Z,101767.31
2023-02-09T08:19:19.072Z,101769.66
2023-02-09T08:20:17.071Z,101770.88
2023-02-09T08:21:12.061Z,101770.35
2023-02-09T08:22:11.082Z,101773.48
2023-02-09T08:23:20.078Z,101772.90
2023-02-09T08:24:11.067Z,101770.35
2023-02-09T08:25:11.063Z,101767.46
2023-02-09T08:26:11.067Z,101766.70
2023-02-09T08:27:11.076Z,101762.84
2023-02-09T08:28:11.103Z,101766.09
2023-02-09T08:29:11.067Z,101764.01
2023-02-09T08:30:11.072Z,101768.00
2023-02-09T08:31:11.205Z,101769.71
2023-02-09T08:32:11.086Z,101766.90
2023-02-09T08:33:11.072Z,101769.66
2023-02-09T08:34:11.065Z,101769.01
2023-02-09T08:35:11.079Z,101770.52
2023-02-09T08:36:11.077Z,101772.92
2023-02-09T08:37:11.069Z,101770.61
2023-02-09T08:38:11.089Z,101775.56
2023-02-09T08:39:11.068Z,101773.94
2023-02-09T08:40:11.067Z,101773.33
2023-02-09T08:41:12.073Z,101774.27
2023-02-09T08:42:11.071Z,101775.16
2023-02-09T08:43:11.069Z,101774.43
2023-02-09T08:44:11.068Z,101776.27
2023-02-09T08:45:11.074Z,101775.49
2023-02-09T08:46:12.208Z,101775.40
2023-02-09T08:47:11.136Z,101773.38
2023-02-09T08:48:15.080Z,101777.93
2023-02-09T08:49:11.076Z,101779.92
2023-02-09T08:50:11.065Z,101781.59
2023-02-09T08:51:11.078Z,101785.21
2023-02-09T08:52:12.076Z,101789.85
2023-02-09T08:53:11.072Z,101788.38
2023-02-09T08:54:11.077Z,101794.73
2023-02-09T08:55:11.102Z,101792.01
2023-02-09T08:56:11.070Z,101793.76
2023-02-09T08:57:11.070Z,101795.06
2023-02-09T08:58:11.078Z,101797.82
2023-02-09T08:59:11.075Z,101799.62
2023-02-09T09:00:11.073Z,101798.76
2023-02-09T09:01:11.100Z,101800.23
2023-02-09T09:02:11.072Z,101796.44
2023-02-09T09:03:11.068Z,101798.68
2023-02-09T09:04:11.082Z,101796.85
2023-02-09T09:05:11.075Z,101796.86
2023-02-09T09:06:11.073Z,101801.16
2023-02-09T09:07:11.070Z,101803.89
2023-02-09T09:08:11.072Z,101801.16
2023-02-09T09:09:11.075Z,101804.70
2023-02-09T09:10:11.074Z,101804.97
2023-02-09T09:11:16.086Z,101808.79
2023-02-09T09:12:11.073Z,101806.68
2023-02-09T09:13:11.069Z,101807.80
2023-02-09T09:14:11.091Z,101810.57
2023-02-09T09:15:11.075Z,101806.28
2023-02-09T09:16:15.109Z,101801.88
2023-02-09T09:17:11.080Z,101805.57
2023-02-09T09:18:11.075Z,101807.59
2023-02-09T09:19:11.074Z,101810.39
2023-02-09T09:20:11.076Z,101817.14
2023-02-09T09:21:12.234Z,101815.25
2023-02-09T09:22:11.072Z,101819.32
2023-02-09T09:23:11.074Z,101819.06
2023-02-09T09:24:11.083Z,101823.73
2023-02-09T09:25:11.076Z,101825.41
2023-02-09T09:26:11.075Z,101825.79
2023-02-09T09:27:12.120Z,101832.00
2023-02-09T09:28:11.149Z,101828.91
2023-02-09T09:29:11.082Z,101829.79
2023-02-09T09:30:11.081Z,101833.52
2023-02-09T09:31:11.138Z,101836.40
2023-02-09T09:32:12.188Z,101837.28
2023-02-09T09:33:11.226Z,101840.20
2023-02-09T09:34:11.072Z,101837.83
2023-02-09T09:35:11.075Z,101841.58
2023-02-09T09:36:11.091Z,101844.71
2023-02-09T09:37:11.076Z,101843.73
2023-02-09T09:38:11.078Z,101845.29
2023-02-09T09:39:11.084Z,101844.61
2023-02-09T09:40:12.077Z,101844.67
2023-02-09T09:41:19.123Z,101843.00
2023-02-09T09:42:19.088Z,101847.98
2023-02-09T09:43:19.080Z,101842.70
2023-02-09T09:44:16.081Z,101845.74
2023-02-09T09:45:15.074Z,101849.23
2023-02-09T09:46:17.157Z,101849.74
2023-02-09T09:47:14.076Z,101850.24
2023-02-09T09:48:21.079Z,101856.35
2023-02-09T09:49:21.081Z,101859.39
2023-02-09T09:50:15.081Z,101855.54
2023-02-09T09:51:21.085Z,101856.52
2023-02-09T09:52:21.077Z,101849.62
2023-02-09T09:53:18.090Z,101849.12
2023-02-09T09:54:17.075Z,101851.35
2023-02-09T09:55:14.077Z,101850.77
2023-02-09T09:56:11.084Z,101848.36
2023-02-09T09:57:19.076Z,101849.18
2023-02-09T09:58:17.095Z,101849.69
2023-02-09T09:59:19.080Z,101855.73
2023-02-09T10:00:18.085Z,101854.91
2023-02-09T10:01:17.115Z,101855.68
2023-02-09T10:02:18.062Z,101853.74
2023-02-09T10:03:15.068Z,101855.44
2023-02-09T10:04:15.134Z,101860.07
2023-02-09T10:05:23.063Z,101860.44
2023-02-09T10:06:19.067Z,101864.74
2023-02-09T10:07:17.446Z,101866.40
2023-02-09T10:08:19.070Z,101867.81
2023-02-09T10:09:19.064Z,101876.46
2023-02-09T10:10:21.064Z,101872.75
2023-02-09T10:11:14.062Z,101877.40
2023-02-09T10:12:21.066Z,101875.29
2023-02-09T10:13:21.074Z,101876.39
2023-02-09T10:14:11.063Z,101875.61
2023-02-09T10:15:17.058Z,101872.43
2023-02-09T10:16:17.134Z,101877.32
2023-02-09T10:17:11.140Z,101876.36
2023-02-09T10:18:16.070Z,101879.32
2023-02-09T10:19:21.065Z,101885.04
2023-02-09T10:20:11.063Z,101891.50
2023-02-09T10:21:13.077Z,101886.65
2023-02-09T10:22:13.066Z,101890.82
2023-02-09T10:23:18.070Z,101890.96
2023-02-09T10:24:21.076Z,101890.04
2023-02-09T10:25:19.072Z,101893.88
2023-02-09T10:26:19.064Z,101894.46
2023-02-09T10:27:19.067Z,101894.22
2023-02-09T10:28:19.117Z,101893.85
2023-02-09T10:29:21.068Z,101900.05
2023-02-09T10:30:19.205Z,101888.54
2023-02-09T10:31:20.177Z,101890.98
2023-02-09T10:32:20.069Z,101888.09
2023-02-09T10:33:14.061Z,101896.34
2023-02-09T10:34:16.066Z,101903.17
2023-02-09T10:35:19.062Z,101904.32
2023-02-09T10:36:20.062Z,101904.70
2023-02-09T10:37:19.068Z,101902.59
2023-02-09T10:38:18.078Z,101905.79
2023-02-09T10:39:21.058Z,101905.67
2023-02-09T10:40:19.202Z,101907.50
2023-02-09T10:41:11.060Z,101903.01
2023-02-09T10:42:19.062Z,101901.02
2023-02-09T10:43:19.058Z,101904.88
2023-02-09T10:44:19.059Z,101900.63
2023-02-09T10:45:21.062Z,101903.90
2023-02-09T10:46:17.108Z,101908.96
2023-02-09T10:47:21.068Z,101910.32
2023-02-09T10:48:18.062Z,101911.49
2023-02-09T10:49:19.060Z,101904.35
2023-02-09T10:50:17.132Z,101906.67
2023-02-09T10:51:19.067Z,101903.19
2023-02-09T10:52:17.071Z,101893.21
2023-02-09T10:53:18.058Z,101889.05
2023-02-09T10:54:19.079Z,101889.88
2023-02-09T10:55:19.060Z,101885.66
2023-02-09T10:56:18.068Z,101880.46
2023-02-09T10:57:21.061Z,101882.02
2023-02-09T10:58:21.065Z,101888.51
2023-02-09T10:59:18.067Z,101885.01
2023-02-09T11:00:21.061Z,101895.06
2023-02-09T11:01:17.125Z,101894.55
2023-02-09T11:02:19.065Z,101893.19
2023-02-09T11:03:18.069Z,101892.56
2023-02-09T11:04:19.095Z,101887.11
2023-02-09T11:05:19.073Z,101890.61
2023-02-09T11:06:16.087Z,101887.00
2023-02-09T11:07:19.065Z,101889.86
2023-02-09T11:08:20.062Z,101893.50
2023-02-09T11:09:17.064Z,101892.49
2023-02-09T11:10:12.660Z,101892.06
2023-02-09T11:11:19.065Z,101887.43
2023-02-09T11:12:13.090Z,101893.54
2023-02-09T11:13:21.076Z,101890.04
2023-02-09T11:14:17.074Z,101896.91
2023-02-09T11:15:13.074Z,101898.05
2023-02-09T11:16:21.126Z,101899.09
2023-02-09T11:17:19.069Z,101904.14
2023-02-09T11:18:22.075Z,101904.85
2023-02-09T11:19:21.088Z,101907.43
2023-02-09T11:20:19.065Z,101911.94
2023-02-09T11:21:19.066Z,101915.07
2023-02-09T11:22:20.067Z,101916.83
2023-02-09T11:23:21.074Z,101911.69
2023-02-09T11:24:19.072Z,101909.16